Time;durP1;ratioP1;P1;durP2;ratioP2;P2;SDS_P1;SDS_P2;PMS_P1;PMS_P2;Temp;Humidity;BMP_temperature;BMP_pressure;BME280_temperature;BME280_humidity;BME280_pressure;Samples;Min_cycle;Max_cycle;Signal;HPM_P1;HPM_P2
2021/09/02 00:00:08;;;;;;;4.35;3.15;;;;;;;16.37;68.05;102872.16;5033212;28;20384;-41
2021/09/02 00:02:33;;;;;;;4.72;3.28;;;;;;;16.34;67.97;102861.63;5033844;28;20037;-41
2021/09/02 00:04:59;;;;;;;4.97;2.95;;;;;;;16.38;68.20;102859.44;5036485;28;20029;-41
2021/09/02 00:07:24;;;;;;;3.17;2.78;;;;;;;16.37;68.40;102855.00;5042991;28;20078;-42
2021/09/02 00:09:49;;;;;;;5.80;3.05;;;;;;;16.34;67.91;102855.34;5052871;28;20037;-40
2021/09/02 00:12:15;;;;;;;4.85;3.20;;;;;;;16.33;68.10;102856.38;5039862;28;20025;-40
2021/09/02 00:14:40;;;;;;;4.15;2.97;;;;;;;16.36;68.03;102865.03;5045011;28;20033;-40
2021/09/02 00:17:06;;;;;;;7.32;3.42;;;;;;;16.35;68.22;102857.03;5047073;28;20033;-41
2021/09/02 00:19:31;;;;;;;3.95;3.20;;;;;;;16.34;68.30;102861.63;5060026;28;20059;-40
2021/09/02 00:21:57;;;;;;;4.85;3.53;;;;;;;16.35;68.25;102851.59;5052166;28;20025;-41
2021/09/02 00:24:22;;;;;;;5.75;3.55;;;;;;;16.33;68.16;102851.81;5041690;28;20017;-41
2021/09/02 00:26:47;;;;;;;6.22;3.17;;;;;;;16.29;68.58;102853.16;5032852;28;20033;-41
2021/09/02 00:29:13;;;;;;;4.60;3.45;;;;;;;16.26;68.85;102850.78;5036054;28;20393;-41
2021/09/02 00:31:38;;;;;;;4.97;3.47;;;;;;;16.24;68.94;102845.53;5052679;28;20029;-41
2021/09/02 00:34:04;;;;;;;4.32;3.38;;;;;;;16.27;68.09;102844.31;5046999;28;20091;-41
2021/09/02 00:36:29;;;;;;;4.63;3.45;;;;;;;16.33;68.19;102842.81;5033086;28;20026;-41
2021/09/02 00:38:54;;;;;;;5.15;2.90;;;;;;;16.36;68.12;102847.88;5031337;28;20489;-42
2021/09/02 00:41:20;;;;;;;6.15;3.15;;;;;;;16.32;68.45;102844.66;5047637;28;20063;-41
2021/09/02 00:43:45;;;;;;;6.03;3.30;;;;;;;16.27;68.81;102843.47;5051668;28;20382;-41
2021/09/02 00:46:14;;;;;;;4.55;3.22;;;;;;;16.28;68.62;102843.31;5051377;28;20435;-41
2021/09/02 00:48:41;;;;;;;3.75;3.20;;;;;;;16.33;68.15;102840.94;5050439;28;20037;-41
2021/09/02 00:51:06;;;;;;;6.43;3.35;;;;;;;16.30;68.44;102838.56;5051413;28;20037;-41
2021/09/02 00:53:32;;;;;;;3.63;2.90;;;;;;;16.30;68.30;102827.69;5050856;28;20036;-40
2021/09/02 00:55:58;;;;;;;7.03;3.10;;;;;;;16.34;67.96;102831.75;5035485;28;20056;-41
2021/09/02 00:58:23;;;;;;;5.25;3.47;;;;;;;16.38;67.80;102824.97;5041235;28;20075;-42
2021/09/02 01:00:49;;;;;;;3.95;2.92;;;;;;;16.35;68.02;102825.31;5051610;28;20021;-42
2021/09/02 01:03:19;;;;;;;5.13;3.50;;;;;;;16.33;67.90;102827.34;5051787;28;20471;-41
2021/09/02 01:05:46;;;;;;;4.82;3.08;;;;;;;16.33;67.74;102816.47;5035696;28;20040;-41
2021/09/02 01:08:12;;;;;;;5.68;3.38;;;;;;;16.35;67.59;102819.00;5050550;28;20495;-40
2021/09/02 01:10:40;;;;;;;7.63;3.13;;;;;;;16.40;67.16;102817.50;5036345;28;20034;-40
2021/09/02 01:13:05;;;;;;;6.45;3.60;;;;;;;16.38;67.18;102814.09;5032054;28;20025;-40
2021/09/02 01:15:30;;;;;;;6.18;3.83;;;;;;;16.24;66.79;102817.50;5032834;28;20353;-40
2021/09/02 01:17:58;;;;;;;8.63;3.80;;;;;;;16.21;67.28;102817.84;5035403;28;20060;-40
2021/09/02 01:20:25;;;;;;;6.22;3.30;;;;;;;16.22;67.15;102817.69;5051702;28;20473;-41
2021/09/02 01:22:53;;;;;;;4.05;3.22;;;;;;;16.15;67.30;102813.94;5051704;28;20029;-40
2021/09/02 01:25:23;;;;;;;6.40;2.72;;;;;;;16.12;67.29;102808.84;5047602;28;20032;-41
2021/09/02 01:27:54;;;;;;;6.80;3.60;;;;;;;16.23;65.95;102808.50;5049986;28;20112;-42
2021/09/02 01:30:20;;;;;;;8.18;4.10;;;;;;;16.21;66.44;102810.53;5051606;28;20036;-41
2021/09/02 01:32:48;;;;;;;6.35;3.90;;;;;;;16.18;66.55;102801.88;5052021;28;20025;-41
2021/09/02 01:35:15;;;;;;;7.78;4.05;;;;;;;16.14;67.28;102803.22;5050798;28;20036;-40
2021/09/02 01:37:42;;;;;;;7.95;3.85;;;;;;;16.09;66.55;102802.88;5050833;28;20025;-41
2021/09/02 01:40:09;;;;;;;10.57;4.47;;;;;;;16.11;66.52;102806.28;5043495;28;20109;-41
2021/09/02 01:42:35;;;;;;;9.20;4.15;;;;;;;16.11;66.79;102803.56;5036518;28;20033;-41
2021/09/02 01:45:00;;;;;;;7.13;4.55;;;;;;;16.04;67.32;102808.84;5038477;28;20040;-42
2021/09/02 01:47:27;;;;;;;6.40;3.95;;;;;;;16.01;67.21;102812.75;5045230;28;20060;-41
2021/09/02 01:49:53;;;;;;;7.07;3.47;;;;;;;16.01;65.49;102818.19;5056337;28;20025;-42
2021/09/02 01:52:22;;;;;;;6.78;4.30;;;;;;;16.08;64.56;102821.06;5054208;28;20025;-40
2021/09/02 01:54:48;;;;;;;6.57;4.07;;;;;;;16.12;64.55;102819.72;5052121;28;20045;-41
2021/09/02 01:57:14;;;;;;;5.70;3.72;;;;;;;16.21;64.12;102817.84;5045364;28;20556;-41
2021/09/02 01:59:40;;;;;;;10.07;4.10;;;;;;;16.19;64.68;102825.31;5036028;28;20037;-41
2021/09/02 02:02:05;;;;;;;8.55;4.15;;;;;;;16.14;64.87;102823.13;5047354;28;20036;-41
2021/09/02 02:04:30;;;;;;;10.27;4.50;;;;;;;16.15;65.13;102826.69;5055323;28;20461;-41
2021/09/02 02:06:56;;;;;;;7.43;3.55;;;;;;;16.19;65.07;102819.88;5054983;28;20061;-42
2021/09/02 02:09:21;;;;;;;8.05;4.25;;;;;;;16.15;65.55;102819.38;5055939;28;20041;-41
2021/09/02 02:11:46;;;;;;;9.90;4.47;;;;;;;16.18;65.42;102812.75;5042596;28;20029;-41
2021/09/02 02:14:12;;;;;;;6.97;4.68;;;;;;;16.21;65.56;102812.41;5044542;28;20033;-41
2021/09/02 02:16:37;;;;;;;8.48;4.50;;;;;;;16.14;66.16;102808.66;5035933;28;20040;-40
2021/09/02 02:19:03;;;;;;;8.88;4.65;;;;;;;16.17;66.23;102809.19;5035742;28;20053;-40
2021/09/02 02:21:28;;;;;;;9.27;4.70;;;;;;;16.17;66.58;102802.91;5046768;28;20204;-41
2021/09/02 02:23:53;;;;;;;9.18;4.65;;;;;;;16.15;66.39;102799.50;5055500;28;20108;-41
2021/09/02 02:26:19;;;;;;;11.85;4.25;;;;;;;16.13;65.85;102804.25;5054987;28;20022;-41
2021/09/02 02:28:44;;;;;;;6.13;3.20;;;;;;;16.12;64.32;102799.84;5050522;28;20108;-41
2021/09/02 02:31:09;;;;;;;5.47;2.90;;;;;;;16.19;63.60;102804.44;5035656;28;20501;-41
2021/09/02 02:33:35;;;;;;;7.88;2.60;;;;;;;16.20;63.33;102805.28;5040674;28;20029;-41
2021/09/02 02:36:00;;;;;;;5.63;3.05;;;;;;;16.24;63.75;102806.63;5054099;28;20389;-41
2021/09/02 02:38:25;;;;;;;7.10;3.22;;;;;;;16.20;64.27;102799.84;5053675;28;20473;-41
2021/09/02 02:40:50;;;;;;;7.63;3.63;;;;;;;16.12;64.79;102808.00;5050957;28;20026;-41
2021/09/02 02:43:16;;;;;;;7.32;3.38;;;;;;;16.02;65.50;102811.72;5037876;28;20041;-41
2021/09/02 02:45:41;;;;;;;6.05;3.70;;;;;;;15.98;66.49;102810.38;5054385;28;20485;-40
2021/09/02 02:48:06;;;;;;;5.63;3.75;;;;;;;15.99;66.80;102798.50;5055363;28;20531;-41
2021/09/02 02:50:32;;;;;;;8.18;3.90;;;;;;;16.05;66.25;102796.13;5054740;28;20025;-40
2021/09/02 02:52:59;;;;;;;6.05;3.58;;;;;;;16.04;66.56;102799.88;5048126;28;20068;-41
2021/09/02 02:55:24;;;;;;;8.02;4.65;;;;;;;16.00;67.06;102805.59;5035272;28;20033;-41
2021/09/02 02:57:49;;;;;;;7.10;4.13;;;;;;;16.05;67.24;102801.56;5035145;28;20021;-41
2021/09/02 03:00:15;;;;;;;6.88;3.80;;;;;;;16.02;67.16;102805.47;5035163;28;20377;-40
2021/09/02 03:02:40;;;;;;;10.50;4.63;;;;;;;16.00;67.59;102807.47;5035105;28;20493;-39
2021/09/02 03:05:08;;;;;;;7.50;4.20;;;;;;;15.99;67.72;102803.94;5047795;28;20026;-41
2021/09/02 03:07:34;;;;;;;6.25;4.20;;;;;;;15.95;68.25;102802.56;5049469;28;20392;-41
2021/09/02 03:09:59;;;;;;;8.02;4.20;;;;;;;15.98;67.72;102802.25;5054172;28;20357;-40
2021/09/02 03:12:25;;;;;;;6.10;4.22;;;;;;;15.98;67.83;102802.25;5054592;28;20037;-41
2021/09/02 03:14:50;;;;;;;6.22;4.07;;;;;;;16.00;67.59;102794.75;5054442;28;20405;-42
2021/09/02 03:17:15;;;;;;;13.30;4.80;;;;;;;15.98;67.46;102799.53;5056184;28;20037;-42
2021/09/02 03:19:41;;;;;;;11.60;4.93;;;;;;;16.00;67.11;102794.75;5055692;28;20076;-41
2021/09/02 03:22:06;;;;;;;12.77;4.45;;;;;;;15.98;66.25;102796.81;5048614;28;20040;-41
2021/09/02 03:24:31;;;;;;;7.78;3.50;;;;;;;15.99;66.20;102798.50;5034738;28;20136;-41
2021/09/02 03:26:57;;;;;;;8.02;4.07;;;;;;;16.01;66.12;102791.03;5034597;28;20034;-41
2021/09/02 03:29:22;;;;;;;7.88;4.75;;;;;;;16.08;65.23;102793.91;5039706;28;20484;-41
2021/09/02 03:31:47;;;;;;;6.50;3.58;;;;;;;16.07;64.79;102788.66;5054508;28;20187;-41
2021/09/02 03:34:13;;;;;;;7.97;4.03;;;;;;;16.04;64.97;102787.13;5052848;28;20044;-40
2021/09/02 03:36:38;;;;;;;5.55;3.58;;;;;;;16.05;64.45;102791.53;5043903;28;20029;-40
2021/09/02 03:39:03;;;;;;;4.97;3.40;;;;;;;16.05;64.68;102787.97;5034081;28;20377;-40
2021/09/02 03:41:29;;;;;;;8.48;3.83;;;;;;;16.07;64.41;102784.06;5034550;28;20033;-41
2021/09/02 03:43:54;;;;;;;5.43;3.95;;;;;;;15.99;64.69;102787.63;5043299;28;20062;-41
2021/09/02 03:46:19;;;;;;;5.65;3.45;;;;;;;15.97;63.73;102784.22;5054219;28;20032;-41
2021/09/02 03:48:45;;;;;;;4.93;2.95;;;;;;;16.00;63.14;102777.63;5050886;28;20071;-41
2021/09/02 03:51:10;;;;;;;8.70;3.22;;;;;;;16.03;62.23;102774.53;5033993;28;20428;-40
2021/09/02 03:53:35;;;;;;;5.43;3.30;;;;;;;16.04;62.96;102778.13;5045215;28;20124;-41
2021/09/02 03:56:01;;;;;;;6.25;3.20;;;;;;;16.04;61.83;102778.97;5042764;28;20036;-41
2021/09/02 03:58:26;;;;;;;4.50;2.88;;;;;;;16.04;61.94;102772.72;5033870;28;20033;-40
2021/09/02 04:00:51;;;;;;;5.13;2.78;;;;;;;16.05;61.61;102769.81;5037929;28;20037;-41
2021/09/02 04:03:16;;;;;;;6.32;3.10;;;;;;;16.09;61.35;102775.72;5037519;28;20086;-42
2021/09/02 04:05:42;;;;;;;4.47;2.80;;;;;;;16.10;61.54;102767.41;5051392;28;20130;-42
2021/09/02 04:08:07;;;;;;;5.53;3.20;;;;;;;16.10;61.71;102772.00;5050392;28;20025;-40
2021/09/02 04:10:32;;;;;;;6.63;2.97;;;;;;;16.09;61.61;102767.56;5040227;28;20084;-41
2021/09/02 04:12:58;;;;;;;7.65;3.35;;;;;;;16.09;61.54;102770.28;5038919;28;20036;-41
2021/09/02 04:15:23;;;;;;;3.17;2.75;;;;;;;16.13;61.66;102766.22;5050417;28;20025;-41
2021/09/02 04:17:48;;;;;;;8.13;3.40;;;;;;;16.01;62.40;102766.59;5050965;28;20044;-41
2021/09/02 04:20:14;;;;;;;8.70;3.83;;;;;;;15.91;63.57;102757.78;5052270;28;20041;-41
2021/09/02 04:22:39;;;;;;;9.32;3.63;;;;;;;15.87;63.88;102761.00;5037538;28;20462;-41
2021/09/02 04:25:05;;;;;;;7.53;3.38;;;;;;;15.82;63.65;102763.34;5036493;28;20520;-42
2021/09/02 04:27:30;;;;;;;7.95;3.40;;;;;;;15.78;63.79;102765.56;5048566;28;20051;-41
2021/09/02 04:29:56;;;;;;;7.88;3.60;;;;;;;15.79;64.23;102767.25;5041924;28;20049;-41
2021/09/02 04:32:21;;;;;;;7.07;4.00;;;;;;;15.76;65.21;102759.47;5044050;28;20408;-43
2021/09/02 04:34:46;;;;;;;7.55;3.15;;;;;;;15.74;64.54;102762.34;5033723;28;20481;-41
2021/09/02 04:37:11;;;;;;;7.97;3.55;;;;;;;15.74;65.51;102766.91;5044035;28;20022;-41
2021/09/02 04:39:37;;;;;;;6.18;3.35;;;;;;;15.73;64.54;102766.06;5038409;28;20491;-41
2021/09/02 04:42:02;;;;;;;7.40;3.63;;;;;;;15.76;64.27;102767.59;5052001;28;20044;-41
2021/09/02 04:44:28;;;;;;;9.15;3.33;;;;;;;15.75;65.20;102774.06;5052617;28;20045;-40
2021/09/02 04:46:53;;;;;;;8.18;4.40;;;;;;;15.74;65.14;102769.63;5052353;28;20033;-41
2021/09/02 04:49:18;;;;;;;11.27;4.05;;;;;;;15.77;65.60;102778.31;5052346;28;20031;-41
2021/09/02 04:51:44;;;;;;;5.47;3.50;;;;;;;15.73;66.06;102773.38;5039151;28;20438;-40
2021/09/02 04:54:09;;;;;;;14.93;4.45;;;;;;;15.71;66.12;102778.13;5032410;28;20025;-41
2021/09/02 04:56:34;;;;;;;9.02;4.13;;;;;;;15.70;67.40;102771.00;5032338;28;20102;-41
2021/09/02 04:59:00;;;;;;;7.03;3.88;;;;;;;15.69;66.87;102764.72;5049026;28;20056;-41
2021/09/02 05:01:25;;;;;;;6.55;3.70;;;;;;;15.70;66.35;102779.16;5050082;28;20443;-41
2021/09/02 05:03:50;;;;;;;9.27;4.28;;;;;;;15.70;67.32;102776.44;5039448;28;20465;-41
2021/09/02 05:06:16;;;;;;;11.75;4.60;;;;;;;15.71;67.50;102781.69;5051958;28;20132;-41
2021/09/02 05:08:41;;;;;;;6.85;4.00;;;;;;;15.71;67.90;102776.25;5051918;28;20035;-42
2021/09/02 05:11:06;;;;;;;10.70;4.50;;;;;;;15.73;67.27;102781.53;5052061;28;20047;-41
2021/09/02 05:13:32;;;;;;;8.10;4.38;;;;;;;15.77;66.77;102781.03;5051188;28;20060;-41
2021/09/02 05:15:57;;;;;;;6.68;3.92;;;;;;;15.80;66.78;102779.84;5046725;28;20029;-41
2021/09/02 05:18:22;;;;;;;7.45;4.10;;;;;;;15.84;66.20;102775.75;5031707;28;20053;-41
2021/09/02 05:20:47;;;;;;;8.75;3.85;;;;;;;15.89;65.74;102765.22;5031864;28;20060;-41
2021/09/02 05:23:13;;;;;;;9.90;4.10;;;;;;;15.91;65.74;102765.91;5032477;28;20128;-41
2021/09/02 05:25:38;;;;;;;10.73;4.60;;;;;;;15.88;65.24;102768.97;5031105;28;20025;-41
2021/09/02 05:28:04;;;;;;;7.72;4.13;;;;;;;15.89;65.18;102767.09;5033753;28;20466;-41
2021/09/02 05:30:29;;;;;;;9.00;3.88;;;;;;;15.92;65.00;102762.16;5031980;28;20031;-41
2021/09/02 05:32:54;;;;;;;7.55;3.95;;;;;;;15.94;65.75;102772.88;5035438;28;20096;-41
2021/09/02 05:35:19;;;;;;;9.57;4.43;;;;;;;16.00;65.10;102767.59;5033079;28;20072;-41
2021/09/02 05:37:45;;;;;;;9.98;4.50;;;;;;;16.07;65.03;102766.94;5033925;28;20536;-41
2021/09/02 05:40:11;;;;;;;8.93;4.38;;;;;;;16.14;64.83;102765.19;5034358;28;20155;-41
2021/09/02 05:42:36;;;;;;;10.85;4.70;;;;;;;16.08;65.55;102769.44;5045106;28;20075;-40
2021/09/02 05:45:02;;;;;;;14.18;5.32;;;;;;;16.06;65.53;102759.78;5052016;28;20029;-41
2021/09/02 05:47:28;;;;;;;10.02;4.20;;;;;;;16.06;65.45;102760.66;5052606;28;20021;-42
2021/09/02 05:49:53;;;;;;;9.93;4.55;;;;;;;16.10;65.77;102770.13;5052197;28;20040;-41
2021/09/02 05:52:18;;;;;;;9.35;5.03;;;;;;;16.10;66.06;102763.88;5043253;28;20021;-40
2021/09/02 05:54:44;;;;;;;8.93;4.35;;;;;;;16.16;66.08;102766.72;5031577;28;20108;-40
2021/09/02 05:57:09;;;;;;;11.18;4.43;;;;;;;16.15;66.48;102770.47;5030558;28;20163;-40
2021/09/02 05:59:35;;;;;;;9.32;4.72;;;;;;;16.24;66.61;102768.59;5031499;28;20029;-40
2021/09/02 06:02:00;;;;;;;11.13;5.97;;;;;;;16.19;67.53;102770.97;5036719;28;20033;-40
2021/09/02 06:04:25;;;;;;;11.93;5.63;;;;;;;16.19;67.42;102768.25;5035587;28;20160;-41
2021/09/02 06:06:51;;;;;;;33.90;7.15;;;;;;;16.28;67.10;102761.78;5031583;28;20049;-41
2021/09/02 06:09:16;;;;;;;13.73;6.00;;;;;;;16.32;67.70;102760.41;5031905;28;20116;-40
2021/09/02 06:11:42;;;;;;;19.42;6.20;;;;;;;16.35;67.73;102770.97;5032329;28;20512;-40
2021/09/02 06:14:07;;;;;;;14.98;7.18;;;;;;;16.38;67.66;102770.59;5051313;28;20036;-41
2021/09/02 06:16:33;;;;;;;16.60;7.05;;;;;;;16.45;67.90;102771.59;5051252;28;20025;-40
2021/09/02 06:18:58;;;;;;;15.48;6.28;;;;;;;16.46;68.06;102777.91;5051269;28;20077;-41
2021/09/02 06:21:23;;;;;;;18.77;8.27;;;;;;;16.52;68.11;102773.63;5034831;28;20037;-41
2021/09/02 06:23:49;;;;;;;14.43;6.70;;;;;;;16.55;67.84;102782.28;5048204;28;20065;-41
2021/09/02 06:26:14;;;;;;;19.17;6.55;;;;;;;16.55;67.80;102770.56;5052289;28;20423;-40
2021/09/02 06:28:39;;;;;;;20.13;8.02;;;;;;;16.58;67.66;102781.06;5054975;28;20076;-40
2021/09/02 06:31:05;;;;;;;14.05;6.30;;;;;;;16.58;67.41;102775.63;5043981;28;20075;-40
2021/09/02 06:33:30;;;;;;;16.70;7.35;;;;;;;16.61;67.34;102778.88;5049115;28;20476;-40
2021/09/02 06:35:55;;;;;;;19.55;7.05;;;;;;;16.65;66.80;102784.81;5052923;28;20037;-41
2021/09/02 06:38:21;;;;;;;19.75;7.35;;;;;;;16.73;66.41;102779.34;5039582;28;20107;-41
2021/09/02 06:40:46;;;;;;;17.30;7.75;;;;;;;16.73;67.08;102779.34;5042908;28;20025;-41
2021/09/02 06:43:12;;;;;;;15.25;7.00;;;;;;;16.76;65.33;102781.69;5040567;28;20037;-41
2021/09/02 06:45:37;;;;;;;14.88;6.70;;;;;;;16.82;63.94;102783.72;5037542;28;20532;-42
2021/09/02 06:48:03;;;;;;;14.65;6.57;;;;;;;16.90;64.27;102774.69;5053632;28;20025;-42
2021/09/02 06:50:28;;;;;;;17.77;7.43;;;;;;;17.00;63.52;102769.06;5054569;28;20079;-41
2021/09/02 06:52:53;;;;;;;11.30;6.00;;;;;;;17.04;63.12;102775.84;5053061;28;20024;-41
2021/09/02 06:55:19;;;;;;;17.50;6.82;;;;;;;17.11;62.62;102771.38;5054317;28;20024;-42
2021/09/02 06:57:44;;;;;;;11.85;6.20;;;;;;;17.13;62.59;102779.38;5053589;28;20036;-41
2021/09/02 07:00:11;;;;;;;15.68;7.13;;;;;;;17.03;63.01;102776.84;5044614;28;20491;-41
2021/09/02 07:02:36;;;;;;;15.23;6.40;;;;;;;17.02;62.55;102778.72;5049257;28;20109;-41
2021/09/02 07:05:03;;;;;;;17.30;5.82;;;;;;;17.11;62.02;102782.25;5052374;28;20048;-42
2021/09/02 07:07:28;;;;;;;13.48;6.75;;;;;;;17.20;61.67;102772.19;5049326;28;20040;-41
2021/09/02 07:09:53;;;;;;;12.20;5.78;;;;;;;17.23;62.51;102775.38;5040434;28;20024;-41
2021/09/02 07:12:19;;;;;;;13.05;6.43;;;;;;;17.28;62.10;102778.41;5040876;28;20061;-42
2021/09/02 07:14:44;;;;;;;14.55;6.45;;;;;;;17.16;61.57;102785.28;5034803;28;20037;-41
2021/09/02 07:17:09;;;;;;;15.43;6.30;;;;;;;17.23;61.80;102780.81;5036992;28;20025;-41
2021/09/02 07:19:35;;;;;;;14.85;6.20;;;;;;;17.23;61.57;102780.81;5033680;28;20042;-42
2021/09/02 07:22:00;;;;;;;13.85;6.72;;;;;;;17.28;62.45;102778.41;5035194;28;20057;-41
2021/09/02 07:24:25;;;;;;;15.63;6.85;;;;;;;17.36;62.10;102779.41;5044618;28;20033;-40
2021/09/02 07:26:51;;;;;;;16.13;6.55;;;;;;;17.40;62.37;102787.00;5038910;28;20499;-41
2021/09/02 07:29:17;;;;;;;13.40;6.60;;;;;;;17.43;62.86;102785.81;5038635;28;20060;-41
2021/09/02 07:31:42;;;;;;;19.00;7.35;;;;;;;17.41;61.69;102791.44;5042154;28;20063;-40
2021/09/02 07:34:07;;;;;;;14.75;6.68;;;;;;;17.36;60.33;102793.00;5053723;28;20017;-41
2021/09/02 07:36:34;;;;;;;14.38;6.20;;;;;;;17.37;60.92;102791.97;5040719;28;20060;-41
2021/09/02 07:38:59;;;;;;;16.90;7.55;;;;;;;17.48;61.23;102791.56;5033346;28;20469;-41
2021/09/02 07:41:25;;;;;;;10.35;5.68;;;;;;;17.53;60.07;102795.44;5033471;28;20030;-41
2021/09/02 07:43:50;;;;;;;16.35;6.40;;;;;;;17.47;60.75;102790.72;5033446;28;20030;-41
2021/09/02 07:46:16;;;;;;;14.95;6.53;;;;;;;17.57;59.67;102792.38;5038589;28;20109;-41
2021/09/02 07:48:45;;;;;;;9.82;5.68;;;;;;;17.49;59.72;102793.28;5043833;28;20373;-40
2021/09/02 07:51:10;;;;;;;10.48;5.28;;;;;;;17.54;60.01;102799.88;5033128;28;20466;-42
2021/09/02 07:53:36;;;;;;;14.02;5.88;;;;;;;17.68;59.41;102794.66;5048090;28;20036;-41
2021/09/02 07:56:01;;;;;;;17.13;6.45;;;;;;;17.81;59.20;102804.97;5053154;28;20485;-42
2021/09/02 07:58:26;;;;;;;11.98;6.00;;;;;;;17.84;59.43;102799.16;5053280;28;20480;-41
2021/09/02 08:00:52;;;;;;;14.00;5.57;;;;;;;17.87;58.04;102798.78;5052396;28;20035;-41
2021/09/02 08:03:17;;;;;;;11.80;5.50;;;;;;;17.84;58.25;102800.00;5044483;28;20033;-41
2021/09/02 08:05:42;;;;;;;12.43;6.13;;;;;;;17.92;59.05;102807.28;5037689;28;20022;-41
2021/09/02 08:08:08;;;;;;;9.98;5.72;;;;;;;17.86;58.21;102805.28;5034892;28;20030;-42
2021/09/02 08:10:34;;;;;;;12.68;5.35;;;;;;;17.91;57.87;102805.59;5052926;28;20051;-41
2021/09/02 08:12:59;;;;;;;13.20;5.53;;;;;;;17.87;58.44;102815.97;5051481;28;20025;-41
2021/09/02 08:15:25;;;;;;;10.48;5.32;;;;;;;17.91;58.42;102805.59;5052606;28;20029;-42
2021/09/02 08:17:51;;;;;;;11.30;5.75;;;;;;;17.86;57.91;102802.56;5052427;28;20020;-42
2021/09/02 08:20:18;;;;;;;8.93;5.45;;;;;;;17.73;58.36;102803.97;5051326;28;20085;-42
2021/09/02 08:22:43;;;;;;;17.13;6.10;;;;;;;17.69;58.64;102802.66;5040064;28;20075;-42
2021/09/02 08:25:10;;;;;;;9.82;5.35;;;;;;;17.67;58.96;102799.28;5052772;28;20029;-42
2021/09/02 08:27:36;;;;;;;12.97;4.97;;;;;;;17.88;57.90;102800.50;5048840;28;20059;-40
2021/09/02 08:30:03;;;;;;;10.82;5.68;;;;;;;17.86;58.18;102805.28;5051736;28;20065;-41
2021/09/02 08:32:28;;;;;;;11.80;5.50;;;;;;;17.82;58.05;102796.63;5052403;28;20108;-41
2021/09/02 08:34:54;;;;;;;13.38;6.10;;;;;;;17.81;58.93;102804.97;5052356;28;20112;-42
2021/09/02 08:37:19;;;;;;;14.95;6.05;;;;;;;17.76;59.09;102802.78;5052169;28;20115;-42
2021/09/02 08:39:44;;;;;;;13.13;6.20;;;;;;;17.76;60.02;102805.50;5044117;28;20390;-40
2021/09/02 08:42:14;;;;;;;11.88;5.03;;;;;;;17.79;60.09;102805.16;5051941;28;20469;-40
2021/09/02 08:44:39;;;;;;;12.10;5.90;;;;;;;17.81;59.82;102805.81;5052232;28;20413;-41
2021/09/02 08:47:04;;;;;;;11.60;6.07;;;;;;;17.70;59.38;102808.94;5051059;28;20033;-41
2021/09/02 08:49:30;;;;;;;18.92;6.82;;;;;;;17.69;60.14;102809.97;5051949;28;20090;-41
2021/09/02 08:51:55;;;;;;;14.50;6.78;;;;;;;17.66;60.85;102813.91;5050139;28;20089;-40
2021/09/02 08:54:21;;;;;;;17.45;6.88;;;;;;;17.64;61.32;102815.09;5052052;28;20063;-41
2021/09/02 08:56:46;;;;;;;18.13;6.60;;;;;;;17.71;61.31;102822.38;5051822;28;20104;-40
2021/09/02 08:59:11;;;;;;;17.13;7.00;;;;;;;17.64;61.56;102810.53;5051877;28;20051;-40
2021/09/02 09:01:37;;;;;;;14.95;7.07;;;;;;;17.72;62.26;102818.63;5051717;28;20029;-41
2021/09/02 09:04:12;;;;;;;22.67;7.97;;;;;;;17.81;62.20;102815.88;5051839;28;20024;-40
2021/09/02 09:06:38;;;;;;;18.48;7.57;;;;;;;17.81;62.70;102824.06;5051655;28;20044;-41
2021/09/02 09:09:15;;;;;;;20.85;8.60;;;;;;;17.97;62.22;102815.75;5051999;28;20075;-41
2021/09/02 09:11:48;;;;;;;24.63;8.18;;;;;;;18.04;62.13;102824.06;5050559;28;20027;-41
2021/09/02 09:14:23;;;;;;;17.77;8.95;;;;;;;18.03;62.68;102820.44;5052077;28;20476;-40
2021/09/02 09:16:49;;;;;;;20.70;8.93;;;;;;;18.02;63.73;102818.78;5046962;28;20104;-41
2021/09/02 09:19:34;;;;;;;21.63;8.25;;;;;;;18.07;62.66;102810.06;5044767;28;20044;-41
2021/09/02 09:21:59;;;;;;;15.55;8.25;;;;;;;18.09;62.06;102818.88;5032539;28;20026;-40
2021/09/02 09:24:40;;;;;;;17.88;8.40;;;;;;;17.97;62.44;102813.03;5046327;28;20079;-41
2021/09/02 09:27:07;;;;;;;19.55;8.10;;;;;;;17.96;63.53;102814.91;5052337;28;20035;-40
2021/09/02 09:29:33;;;;;;;15.70;7.82;;;;;;;17.95;62.80;102812.34;5059137;28;20025;-39
2021/09/02 09:32:15;;;;;;;15.70;7.63;;;;;;;18.03;60.37;102820.44;5057510;28;20082;-40
2021/09/02 09:34:49;;;;;;;20.67;7.65;;;;;;;17.92;59.25;102812.72;5051109;28;20025;-41
2021/09/02 09:37:14;;;;;;;16.02;7.55;;;;;;;17.89;61.47;102807.66;5052329;28;20029;-40
2021/09/02 09:39:40;;;;;;;18.30;7.57;;;;;;;17.94;62.28;102811.50;5052209;28;20036;-40
2021/09/02 09:42:06;;;;;;;18.35;7.95;;;;;;;18.05;61.66;102804.78;5052246;28;20025;-40
2021/09/02 09:44:32;;;;;;;14.10;7.28;;;;;;;18.11;61.72;102812.19;5038958;28;20033;-40
2021/09/02 09:47:20;;;;;;;13.32;7.43;;;;;;;18.17;62.37;102814.22;5052347;28;20118;-41
2021/09/02 09:49:51;;;;;;;23.20;8.05;;;;;;;18.17;62.00;102816.94;5049460;28;20071;-40
2021/09/02 09:52:32;;;;;;;14.40;7.95;;;;;;;18.17;62.06;102808.75;5052356;28;20033;-42
2021/09/02 09:55:05;;;;;;;18.08;8.10;;;;;;;18.21;60.03;102812.78;5052324;28;20025;-40
2021/09/02 09:57:31;;;;;;;14.27;7.00;;;;;;;18.20;59.07;102805.66;5052302;28;20483;-41
2021/09/02 10:00:07;;;;;;;16.02;7.38;;;;;;;18.21;60.01;102812.78;5052335;28;20045;-41
2021/09/02 10:02:36;;;;;;;18.40;8.30;;;;;;;18.31;60.29;102808.97;5039099;28;20057;-41
2021/09/02 10:05:04;;;;;;;15.07;7.20;;;;;;;18.32;59.71;102810.66;5044372;28;20386;-41
2021/09/02 10:07:29;;;;;;;;;;;;;;;18.29;59.31;102803.69;5055986;28;20370;-40
2021/09/02 10:09:54;;;;;;;13.93;6.53;;;;;;;18.26;60.43;102808.69;5054226;28;20046;-41
2021/09/02 10:12:21;;;;;;;16.90;7.75;;;;;;;18.38;61.28;102804.47;5055261;28;20036;-40
2021/09/02 10:14:48;;;;;;;18.08;7.78;;;;;;;18.36;62.21;102801.09;5055183;28;20115;-41
2021/09/02 10:17:13;;;;;;;15.25;7.93;;;;;;;18.35;61.77;102794.78;5055433;28;20039;-42
2021/09/02 10:19:38;;;;;;;15.27;7.72;;;;;;;18.35;60.96;102796.66;5054989;28;20044;-41
2021/09/02 10:22:04;;;;;;;17.90;7.82;;;;;;;18.30;58.97;102805.41;5040547;28;20022;-41
2021/09/02 10:24:41;;;;;;;18.73;7.53;;;;;;;18.28;59.95;102799.28;5033833;28;20038;-41
2021/09/02 10:27:21;;;;;;;16.42;8.00;;;;;;;18.39;60.60;102796.09;5033906;28;20021;-41
2021/09/02 10:29:47;;;;;;;19.40;7.80;;;;;;;18.44;61.44;102792.81;5034916;28;20072;-41
2021/09/02 10:32:26;;;;;;;16.40;7.55;;;;;;;18.58;60.87;102786.50;5034973;28;20323;-41
2021/09/02 10:35:12;;;;;;;20.60;8.00;;;;;;;18.54;61.40;102785.22;5035034;28;20452;-41
2021/09/02 10:37:43;;;;;;;19.13;7.93;;;;;;;18.58;59.90;102786.50;5034772;28;20439;-40
2021/09/02 10:40:18;;;;;;;21.52;8.05;;;;;;;18.64;60.74;102785.78;5042193;28;20075;-40
2021/09/02 10:42:56;;;;;;;19.55;7.72;;;;;;;18.72;60.52;102778.50;5045420;28;20078;-41
2021/09/02 10:45:27;;;;;;;21.38;8.02;;;;;;;18.73;59.60;102777.50;5054712;28;20048;-41
2021/09/02 10:48:00;;;;;;;16.33;7.38;;;;;;;18.76;58.97;102783.44;5034755;28;20168;-40
2021/09/02 10:50:27;;;;;;;22.77;8.20;;;;;;;18.75;59.51;102786.38;5034460;28;20059;-41
2021/09/02 10:52:54;;;;;;;15.68;8.20;;;;;;;18.76;59.22;102788.06;5048360;28;20365;-42
2021/09/02 10:55:30;;;;;;;18.15;7.65;;;;;;;18.68;59.85;102788.97;5054613;28;20125;-42
2021/09/02 10:57:57;;;;;;;22.30;8.52;;;;;;;18.86;60.05;102785.91;5052126;28;20033;-41
2021/09/02 11:00:42;;;;;;;22.67;8.30;;;;;;;19.03;59.60;102784.63;5034777;28;20454;-41
2021/09/02 11:03:15;;;;;;;18.08;8.82;;;;;;;19.07;59.51;102791.41;5044645;28;20110;-41
2021/09/02 11:05:46;;;;;;;19.00;8.70;;;;;;;19.14;59.83;102785.19;5045412;28;20033;-41
2021/09/02 11:08:11;;;;;;;19.75;9.25;;;;;;;19.01;60.41;102789.44;5034286;28;20044;-41
2021/09/02 11:10:37;;;;;;;19.55;8.90;;;;;;;19.04;60.25;102791.78;5047240;28;20449;-41
2021/09/02 11:13:03;;;;;;;20.00;9.40;;;;;;;18.98;60.62;102778.91;5053658;28;20044;-41
2021/09/02 11:15:29;;;;;;;18.20;8.20;;;;;;;19.00;60.81;102781.44;5052642;28;20021;-41
2021/09/02 11:18:02;;;;;;;15.70;7.78;;;;;;;19.12;60.29;102776.34;5053912;28;20029;-41